Language selection

Features

My Weather Profile Weather Topics  | 

Hecate Strait - southern half: Past 24 Hour Conditions

 

South Moresby - 46147

01:00 PM PST 07 December 2019Buoy position: 51.83N 131.23W
Disclaimer

This table is a summary of hourly weather conditions for the past 24 hours.
Please note that these observations might not always be representative of weather conditions over their associated marine area.

Date / Time
(PST)
Wind(knots) Wave height(m) Wave period(s) Pressure(kPa) Air tempC) Water tempC)
07 December 2019
13:00 N 13 gust 17 2.4 11.0 101.1 8 9
12:00 N 13 gust 16 2.2 11.0 101.1 8 9
11:00 N 12 gust 16 2.0 11.0 101.0 8 9
10:00 N 13 gust 17 2.3 10.0 101.0 8 9
9:00 N 16 gust 19 2.5 11.0 100.9 7 9
8:00 NNW 16 gust 19 2.4 11.0 100.8 7 9
7:00 N 17 gust 22 2.3 10.0 100.7 7 9
6:00 NNW 12 gust 16 2.3 11.0 100.7 7 9
5:00 NNW 16 gust 19 2.3 10.0 100.7 7 9
4:00 NNW 17 gust 22 2.5 11.0 100.6 7 9
3:00 NNW 13 gust 19 2.7 11.0 100.7 7 9
2:00 N 16 gust 19 2.4 11.0 100.6 7 9
1:00 N 17 gust 22 2.8 11.0 100.6 7 9
0:00 N 17 gust 22 2.5 12.0 100.6 6 9
06 December 2019
23:00 N 19 gust 23 2.7 12.0 100.5 7 9
22:00 N 19 gust 25 2.5 12.0 100.5 7 9
21:00 N 17 gust 22 2.8 12.0 100.5 7 9
20:00 N 19 gust 23 2.8 13.0 100.4 7 9
19:00 NNE 17 gust 22 2.6 12.0 100.4 7 9
18:00 NNE 16 gust 19 2.7 13.0 100.5 7 9
17:00 NNE 16 gust 19 2.8 12.0 100.5 7 9
16:00 NNE 17 gust 22 2.7 13.0 100.5 6 9
15:00 NNE 19 gust 25 2.7 10.0 100.5 6 9
14:00 NNE 17 gust 22 2.8 14.0 100.6 6 9
13:00 NNE 16 gust 17 2.6 13.0 100.7 6 9

Zoom-in to make a selection

Map of Pacific - South Coast marine weather areas South Nomad - 46036 Sentry Shoal - 46131 South Brooks - 46132 Halibut Bank - 46146 South Moresby - 46147 South Hecate Strait - 46185 West Sea Otter - 46204 La Perouse Bank - 46206 East Dellwood - 46207 Discovery Island Esquimalt Harbour Kelp Reefs Malahat Race Rocks Lightstation Saturna Island Sheringham Point University of Victoria Victoria Gonzales Victoria Int'l Airport Ballenas Islands Campbell River Airport Comox Airport Entrance Island Fanny Island Nanaimo Airport Port Hardy Airport Sisters Islets Estevan Point Port Alberni Sartine Island Solander Island Tofino Airport Grief Point Howe Sound - Pam Rocks Powell River Airport Sechelt Squamish Airport Cape St.James Bella Bella Airport Bella Coola Airport Cathedral Point Herbert Island Point Atkinson Sand Heads Lightstation Tsawwassen Ferry Terminal Vancouver Int'l Airport Vancouver Harbour West Vancouver
Legend:
buoy Buoy
land station Land Station

Pacific - South Coast Area

Another Region

What we are doing

Date modified: